createdAt,value
2022-11-16T00:02:15.199Z,12.75
2022-11-16T00:04:44.409Z,12.75
2022-11-16T00:07:14.080Z,12.15
2022-11-16T00:09:43.047Z,12.45
2022-11-16T00:12:13.373Z,12.93
2022-11-16T00:14:43.178Z,13.05
2022-11-16T00:17:12.234Z,12.25
2022-11-16T00:19:41.304Z,12.50
2022-11-16T00:22:10.076Z,12.03
2022-11-16T00:24:39.157Z,12.07
2022-11-16T00:27:07.923Z,12.58
2022-11-16T00:29:37.059Z,12.33
2022-11-16T00:32:07.964Z,13.45
2022-11-16T00:34:37.466Z,14.03
2022-11-16T00:37:06.655Z,13.50
2022-11-16T00:39:38.128Z,14.55
2022-11-16T00:42:07.897Z,13.62
2022-11-16T00:44:36.615Z,13.43
2022-11-16T00:47:06.565Z,14.70
2022-11-16T00:49:35.769Z,13.95
2022-11-16T00:52:04.721Z,12.80
2022-11-16T00:54:34.353Z,13.35
2022-11-16T00:57:04.392Z,14.20
2022-11-16T00:59:33.455Z,13.30
2022-11-16T01:02:02.355Z,13.85
2022-11-16T01:04:31.374Z,13.78
2022-11-16T01:07:01.880Z,13.50
2022-11-16T01:09:31.108Z,12.55
2022-11-16T01:12:09.684Z,13.65
2022-11-16T01:14:43.741Z,13.03
2022-11-16T01:17:14.338Z,13.05
2022-11-16T01:19:43.021Z,12.73
2022-11-16T01:22:11.905Z,12.65
2022-11-16T01:24:41.263Z,12.82
2022-11-16T01:27:10.560Z,12.45
2022-11-16T01:29:42.420Z,13.55
2022-11-16T01:32:11.603Z,14.13
2022-11-16T01:34:42.688Z,13.05
2022-11-16T01:37:15.431Z,12.33
2022-11-16T01:39:45.526Z,13.32
2022-11-16T01:42:21.000Z,13.78
2022-11-16T01:45:05.829Z,14.00
2022-11-16T01:47:36.547Z,13.48
2022-11-16T01:50:13.624Z,14.73
2022-11-16T01:52:50.217Z,13.70
2022-11-16T01:55:21.262Z,14.03
2022-11-16T01:58:08.823Z,13.88
2022-11-16T02:00:39.736Z,14.93
2022-11-16T02:03:10.793Z,14.28
2022-11-16T02:06:13.010Z,14.90
2022-11-16T02:09:30.187Z,13.90
2022-11-16T02:12:33.626Z,12.65
2022-11-16T02:15:30.397Z,13.65
2022-11-16T02:18:24.297Z,14.85
2022-11-16T02:21:25.710Z,13.70
2022-11-16T02:24:27.876Z,14.15
2022-11-16T02:27:37.676Z,12.80
2022-11-16T02:30:08.668Z,14.13
2022-11-16T02:32:57.296Z,15.00
2022-11-16T02:35:31.002Z,10.23
2022-11-16T02:38:10.650Z,13.75
2022-11-16T02:40:41.163Z,13.62
2022-11-16T02:43:12.822Z,14.15
2022-11-16T02:45:46.514Z,14.90
2022-11-16T02:48:25.128Z,14.93
2022-11-16T02:50:54.231Z,10.82
2022-11-16T02:53:23.536Z,12.90
2022-11-16T02:55:53.343Z,14.63
2022-11-16T02:58:24.229Z,13.65
2022-11-16T03:01:12.706Z,15.03
2022-11-16T03:03:55.014Z,13.93
2022-11-16T03:06:28.701Z,14.15
2022-11-16T03:09:08.033Z,15.10
2022-11-16T03:12:02.376Z,14.38
2022-11-16T03:14:57.064Z,14.73
2022-11-16T03:17:38.922Z,14.05
2022-11-16T03:20:22.181Z,14.38
2022-11-16T03:22:55.802Z,15.20
2022-11-16T03:25:26.663Z,15.78
2022-11-16T03:28:04.843Z,16.30
2022-11-16T03:30:46.283Z,14.98
2022-11-16T03:33:35.215Z,13.35
2022-11-16T03:36:25.951Z,13.22
2022-11-16T03:38:56.227Z,14.33
2022-11-16T03:41:24.959Z,14.25
2022-11-16T03:43:55.113Z,14.40
2022-11-16T03:46:25.691Z,14.35
2022-11-16T03:48:58.730Z,14.30
2022-11-16T03:51:30.631Z,13.80
2022-11-16T03:53:59.635Z,12.88
2022-11-16T03:56:30.037Z,15.28
2022-11-16T03:59:00.573Z,14.65
2022-11-16T04:01:32.308Z,14.73
2022-11-16T04:04:01.930Z,14.83
2022-11-16T04:06:50.769Z,15.38
2022-11-16T04:09:40.268Z,15.85
2022-11-16T04:15:15.074Z,15.30
2022-11-16T04:20:49.677Z,15.40
2022-11-16T04:23:38.636Z,15.70
2022-11-16T04:26:08.576Z,15.88
2022-11-16T04:28:38.063Z,14.60
2022-11-16T04:31:26.929Z,15.23
2022-11-16T04:34:16.122Z,15.98
2022-11-16T04:37:07.049Z,15.72
2022-11-16T04:39:36.187Z,17.05
2022-11-16T04:42:15.978Z,17.05
2022-11-16T04:45:05.159Z,15.40
2022-11-16T04:47:36.764Z,16.27
2022-11-16T04:50:06.349Z,16.10
2022-11-16T04:52:36.384Z,15.23
2022-11-16T04:55:07.259Z,14.95
2022-11-16T04:57:36.012Z,15.70
2022-11-16T05:00:07.072Z,14.45
2022-11-16T05:02:37.687Z,16.10
2022-11-16T05:05:08.237Z,15.25
2022-11-16T05:07:39.676Z,16.20
2022-11-16T05:10:11.234Z,15.45
2022-11-16T05:12:40.786Z,13.15
2022-11-16T05:15:11.045Z,14.43
2022-11-16T05:17:40.942Z,15.18
2022-11-16T05:20:31.885Z,15.63
2022-11-16T05:23:04.004Z,15.00
2022-11-16T05:25:37.062Z,14.35
2022-11-16T05:28:07.263Z,14.80
2022-11-16T05:30:39.557Z,14.33
2022-11-16T05:33:09.260Z,15.20
2022-11-16T05:35:41.303Z,14.85
2022-11-16T05:38:10.468Z,16.35
2022-11-16T05:40:41.655Z,19.42
2022-11-16T05:43:11.088Z,18.95
2022-11-16T05:45:43.064Z,18.98
2022-11-16T05:48:12.749Z,21.05
2022-11-16T05:50:43.130Z,16.35
2022-11-16T05:53:14.224Z,16.67
2022-11-16T05:55:44.566Z,18.75
2022-11-16T05:58:13.936Z,16.70
2022-11-16T06:00:43.473Z,17.07
2022-11-16T06:03:13.532Z,17.57
2022-11-16T06:05:43.283Z,19.92
2022-11-16T06:08:13.964Z,18.52
2022-11-16T06:10:44.039Z,17.82
2022-11-16T06:13:14.426Z,21.52
2022-11-16T06:15:50.309Z,16.20
2022-11-16T06:20:50.682Z,16.32
2022-11-16T06:23:20.471Z,15.85
2022-11-16T06:25:55.724Z,16.05
2022-11-16T06:28:26.357Z,16.15
2022-11-16T06:30:56.976Z,17.52
2022-11-16T06:33:30.817Z,15.90
2022-11-16T06:35:58.574Z,15.28
2022-11-16T06:38:27.636Z,15.50
2022-11-16T06:40:58.764Z,15.18
2022-11-16T06:43:29.116Z,14.63
2022-11-16T06:46:00.040Z,15.30
2022-11-16T06:48:29.864Z,15.95
2022-11-16T06:50:58.971Z,15.80
2022-11-16T06:53:31.263Z,15.13
2022-11-16T06:56:04.250Z,14.73
2022-11-16T06:58:36.030Z,15.90
2022-11-16T07:01:10.963Z,15.25
2022-11-16T07:03:42.599Z,15.58
2022-11-16T07:06:13.259Z,15.95
2022-11-16T07:08:45.301Z,15.30
2022-11-16T07:11:15.737Z,15.80
2022-11-16T07:13:46.773Z,15.88
2022-11-16T07:16:18.429Z,17.48
2022-11-16T07:18:49.574Z,17.73
2022-11-16T07:21:18.875Z,17.48
2022-11-16T07:23:49.016Z,16.15
2022-11-16T07:26:20.815Z,15.55
2022-11-16T07:28:52.505Z,15.53
2022-11-16T07:31:24.218Z,15.38
2022-11-16T07:33:54.965Z,13.60
2022-11-16T07:36:37.094Z,13.10
2022-11-16T07:39:08.100Z,12.00
2022-11-16T07:41:38.881Z,12.47
2022-11-16T07:44:13.756Z,11.88
2022-11-16T07:46:47.606Z,11.85
2022-11-16T07:49:18.447Z,9.95
2022-11-16T07:51:50.726Z,10.65
2022-11-16T07:54:24.768Z,10.10
2022-11-16T07:56:55.388Z,10.93
2022-11-16T07:59:25.019Z,10.45
2022-11-16T08:01:57.184Z,10.82
2022-11-16T08:04:27.264Z,10.53
2022-11-16T08:06:56.555Z,9.95
2022-11-16T08:09:27.072Z,10.10
2022-11-16T08:11:56.494Z,9.88
2022-11-16T08:14:26.858Z,8.80
2022-11-16T08:16:57.717Z,9.15
2022-11-16T08:19:27.726Z,9.55
2022-11-16T08:21:57.459Z,7.67
2022-11-16T08:24:28.157Z,7.30
2022-11-16T08:26:58.596Z,6.03
2022-11-16T08:29:29.664Z,5.50
2022-11-16T08:31:59.323Z,5.12
2022-11-16T08:34:28.809Z,5.10
2022-11-16T08:36:59.995Z,4.62
2022-11-16T08:39:34.608Z,3.95
2022-11-16T08:42:03.840Z,4.45
2022-11-16T08:44:33.028Z,4.78
2022-11-16T08:47:04.792Z,3.67
2022-11-16T08:49:49.867Z,3.83
2022-11-16T08:52:30.277Z,3.83
2022-11-16T08:55:11.018Z,3.60
2022-11-16T08:57:45.419Z,3.55
2022-11-16T09:00:16.645Z,3.55
2022-11-16T09:02:47.348Z,3.80
2022-11-16T09:05:18.428Z,4.17
2022-11-16T09:07:48.917Z,3.92
2022-11-16T09:10:19.808Z,4.55
2022-11-16T09:12:59.643Z,4.12
2022-11-16T09:15:38.868Z,4.37
2022-11-16T09:18:12.495Z,4.28
2022-11-16T09:20:45.294Z,5.00
2022-11-16T09:23:15.103Z,5.28
2022-11-16T09:25:50.138Z,5.00
2022-11-16T09:28:34.129Z,4.70
2022-11-16T09:31:07.887Z,4.25
2022-11-16T09:33:37.762Z,4.72
2022-11-16T09:36:10.135Z,4.20
2022-11-16T09:41:28.725Z,4.37
2022-11-16T09:44:13.510Z,4.87
2022-11-16T09:46:56.874Z,4.75
2022-11-16T09:50:02.768Z,5.10
2022-11-16T09:52:39.308Z,5.80
2022-11-16T09:55:28.636Z,5.05
2022-11-16T09:58:10.299Z,4.72
2022-11-16T10:00:44.520Z,5.30
2022-11-16T10:03:14.859Z,4.53
2022-11-16T10:06:03.690Z,4.70
2022-11-16T10:08:51.618Z,4.60
2022-11-16T10:14:16.444Z,4.55
2022-11-16T10:17:27.835Z,4.65
2022-11-16T10:20:05.250Z,4.10
2022-11-16T10:22:59.534Z,4.67
2022-11-16T10:25:43.440Z,4.62
2022-11-16T10:29:10.235Z,4.92
2022-11-16T10:32:06.478Z,5.15
2022-11-16T10:34:53.386Z,5.33
2022-11-16T10:37:23.834Z,5.12
2022-11-16T10:39:55.948Z,6.62
2022-11-16T10:42:39.144Z,5.70
2022-11-16T10:45:21.832Z,5.15
2022-11-16T10:47:58.707Z,5.70
2022-11-16T10:50:45.850Z,5.90
2022-11-16T10:53:16.207Z,6.33
2022-11-16T10:55:46.661Z,6.60
2022-11-16T10:58:15.740Z,5.58
2022-11-16T11:00:51.422Z,5.03
2022-11-16T11:03:30.315Z,6.12
2022-11-16T11:06:00.778Z,6.00
2022-11-16T11:08:30.931Z,6.00
2022-11-16T11:11:25.041Z,5.45
2022-11-16T11:14:05.032Z,5.42
2022-11-16T11:16:35.149Z,5.40
2022-11-16T11:19:27.385Z,5.37
2022-11-16T11:22:01.357Z,5.40
2022-11-16T11:24:45.801Z,4.42
2022-11-16T11:27:01.041Z,4.17
2022-11-16T11:29:32.901Z,4.72
2022-11-16T11:32:07.497Z,4.37
2022-11-16T11:34:45.752Z,4.85
2022-11-16T11:37:18.938Z,4.33
2022-11-16T11:39:48.248Z,5.05
2022-11-16T11:42:21.390Z,5.30
2022-11-16T11:45:00.264Z,6.50
2022-11-16T11:47:57.233Z,7.55
2022-11-16T11:50:34.449Z,6.53
2022-11-16T11:53:28.158Z,9.08
2022-11-16T11:56:00.732Z,8.20
2022-11-16T11:58:32.630Z,8.03
2022-11-16T12:01:50.288Z,8.55
2022-11-16T12:04:54.736Z,8.23
2022-11-16T12:08:02.067Z,9.28
2022-11-16T12:10:58.453Z,9.25
2022-11-16T12:13:47.872Z,9.13
2022-11-16T12:16:43.121Z,8.48
2022-11-16T12:19:35.921Z,8.38
2022-11-16T12:22:33.292Z,9.55
2022-11-16T12:25:13.760Z,9.08
2022-11-16T12:28:19.480Z,7.83
2022-11-16T12:31:21.246Z,6.33
2022-11-16T12:34:22.390Z,5.85
2022-11-16T12:37:17.227Z,5.72
2022-11-16T12:40:11.245Z,6.45
2022-11-16T12:43:08.685Z,6.00
2022-11-16T12:45:53.931Z,5.97
2022-11-16T12:48:53.848Z,6.20
2022-11-16T12:51:57.640Z,6.00
2022-11-16T12:55:19.035Z,5.78
2022-11-16T12:58:04.041Z,5.70
2022-11-16T13:00:53.263Z,4.62
2022-11-16T13:03:53.418Z,4.60
2022-11-16T13:06:31.028Z,4.92
2022-11-16T13:09:10.866Z,4.30
2022-11-16T13:11:44.346Z,4.42
2022-11-16T13:14:22.964Z,3.98
2022-11-16T13:16:52.662Z,4.70
2022-11-16T13:19:24.254Z,4.72
2022-11-16T13:22:14.284Z,4.30
2022-11-16T13:24:58.641Z,4.03
2022-11-16T13:27:38.216Z,3.75
2022-11-16T13:30:21.991Z,3.67
2022-11-16T13:33:15.734Z,3.80
2022-11-16T13:35:45.677Z,3.72
2022-11-16T13:38:15.693Z,4.55
2022-11-16T13:40:46.348Z,4.87
2022-11-16T13:43:17.149Z,3.85
2022-11-16T13:45:54.831Z,4.10
2022-11-16T13:48:39.488Z,3.70
2022-11-16T13:51:11.469Z,3.80
2022-11-16T13:56:28.974Z,3.27
2022-11-16T13:58:55.598Z,3.27
2022-11-16T14:01:26.687Z,3.10
2022-11-16T14:04:04.081Z,3.67
2022-11-16T14:06:40.000Z,3.27
2022-11-16T14:09:33.233Z,2.92
2022-11-16T14:12:35.396Z,2.90
2022-11-16T14:15:27.497Z,2.80
2022-11-16T14:18:00.061Z,2.12
2022-11-16T14:21:13.689Z,2.20
2022-11-16T14:24:13.140Z,2.58
2022-11-16T14:27:09.616Z,2.42
2022-11-16T14:29:53.810Z,2.30
2022-11-16T14:32:27.593Z,1.90
2022-11-16T14:34:57.803Z,2.50
2022-11-16T14:37:31.671Z,2.47
2022-11-16T14:40:16.763Z,2.10
2022-11-16T14:43:20.445Z,2.35
2022-11-16T14:45:37.292Z,2.50
2022-11-16T14:48:17.623Z,1.82
2022-11-16T14:51:06.714Z,1.75
2022-11-16T14:53:37.959Z,7.70
2022-11-16T14:56:14.769Z,4.60
2022-11-16T14:58:59.529Z,2.05
2022-11-16T15:01:40.508Z,2.70
2022-11-16T15:04:11.309Z,2.02
2022-11-16T15:06:45.424Z,3.17
2022-11-16T15:09:38.449Z,2.77
2022-11-16T15:12:33.217Z,2.20
2022-11-16T15:15:06.062Z,2.05
2022-11-16T15:17:34.033Z,2.45
2022-11-16T15:20:21.564Z,2.42
2022-11-16T15:25:45.617Z,2.90
2022-11-16T15:28:29.703Z,2.70
2022-11-16T15:31:01.845Z,2.22
2022-11-16T15:33:43.266Z,2.50
2022-11-16T15:36:33.053Z,2.85
2022-11-16T15:39:02.266Z,2.60
2022-11-16T15:41:31.894Z,3.10
2022-11-16T15:44:13.917Z,2.70
2022-11-16T15:46:34.173Z,2.47
2022-11-16T15:49:02.849Z,2.70
2022-11-16T15:51:31.970Z,2.22
2022-11-16T15:54:25.495Z,2.70
2022-11-16T15:57:07.808Z,2.80
2022-11-16T15:59:36.983Z,2.98
2022-11-16T16:02:12.388Z,2.55
2022-11-16T16:04:43.285Z,3.55
2022-11-16T16:07:13.425Z,5.42
2022-11-16T16:09:43.426Z,6.53
2022-11-16T16:12:24.225Z,7.15
2022-11-16T16:15:00.548Z,7.55
2022-11-16T16:17:29.957Z,7.33
2022-11-16T16:20:04.348Z,7.70
2022-11-16T16:22:37.019Z,7.80
2022-11-16T16:25:06.869Z,7.17
2022-11-16T16:27:41.918Z,8.10
2022-11-16T16:30:14.353Z,8.13
2022-11-16T16:32:44.144Z,8.00
2022-11-16T16:35:18.670Z,8.05
2022-11-16T16:37:52.361Z,8.38
2022-11-16T16:40:23.050Z,8.38
2022-11-16T16:42:53.108Z,7.83
2022-11-16T16:45:32.928Z,6.03
2022-11-16T16:48:02.402Z,5.95
2022-11-16T16:50:32.048Z,5.95
2022-11-16T16:53:01.431Z,5.83
2022-11-16T16:55:35.834Z,3.98
2022-11-16T16:58:02.598Z,3.67
2022-11-16T17:00:32.367Z,4.40
2022-11-16T17:03:02.974Z,3.90
2022-11-16T17:05:36.171Z,3.12
2022-11-16T17:08:06.287Z,3.72
2022-11-16T17:10:38.610Z,3.87
2022-11-16T17:13:10.049Z,3.83
2022-11-16T17:15:40.423Z,3.12
2022-11-16T17:18:10.962Z,4.05
2022-11-16T17:20:45.217Z,3.98
2022-11-16T17:23:11.843Z,4.67
2022-11-16T17:25:42.144Z,4.17
2022-11-16T17:28:11.400Z,4.40
2022-11-16T17:30:40.613Z,4.25
2022-11-16T17:33:09.755Z,4.67
2022-11-16T17:35:39.443Z,4.37
2022-11-16T17:38:09.872Z,4.05
2022-11-16T17:40:38.705Z,4.37
2022-11-16T17:43:07.568Z,4.37
2022-11-16T17:45:37.520Z,4.58
2022-11-16T17:48:07.955Z,4.75
2022-11-16T17:50:37.413Z,4.12
2022-11-16T17:53:07.395Z,3.98
2022-11-16T17:55:38.301Z,3.55
2022-11-16T17:58:08.807Z,4.50
2022-11-16T18:00:39.139Z,4.87
2022-11-16T18:03:08.801Z,4.70
2022-11-16T18:05:38.777Z,5.45
2022-11-16T18:08:08.363Z,4.83
2022-11-16T18:10:38.064Z,4.83
2022-11-16T18:13:07.710Z,5.08
2022-11-16T18:15:42.403Z,5.25
2022-11-16T18:18:11.378Z,5.60
2022-11-16T18:20:41.191Z,5.17
2022-11-16T18:23:12.263Z,5.53
2022-11-16T18:25:41.129Z,5.97
2022-11-16T18:28:09.782Z,5.67
2022-11-16T18:30:39.562Z,5.20
2022-11-16T18:33:08.761Z,5.80
2022-11-16T18:35:38.981Z,5.28
2022-11-16T18:38:12.989Z,5.60
2022-11-16T18:40:41.880Z,5.60
2022-11-16T18:43:15.098Z,5.92
2022-11-16T18:45:44.055Z,6.65
2022-11-16T18:48:13.788Z,6.08
2022-11-16T18:50:43.387Z,6.42
2022-11-16T18:53:13.140Z,6.42
2022-11-16T18:55:42.004Z,6.60
2022-11-16T18:58:43.412Z,5.45
2022-11-16T19:00:44.013Z,5.87
2022-11-16T19:03:12.817Z,5.60
2022-11-16T19:05:42.380Z,5.62
2022-11-16T19:08:11.774Z,5.83
2022-11-16T19:10:41.094Z,6.20
2022-11-16T19:13:10.196Z,6.10
2022-11-16T19:15:41.005Z,6.30
2022-11-16T19:18:24.252Z,6.30
2022-11-16T19:20:41.653Z,6.62
2022-11-16T19:23:11.068Z,5.45
2022-11-16T19:25:40.102Z,5.42
2022-11-16T19:28:09.845Z,7.03
2022-11-16T19:30:38.528Z,5.20
2022-11-16T19:33:07.996Z,4.80
2022-11-16T19:35:37.852Z,5.10
2022-11-16T19:38:06.871Z,5.70
2022-11-16T19:40:35.549Z,4.00
2022-11-16T19:43:04.227Z,4.90
2022-11-16T19:45:33.013Z,4.40
2022-11-16T19:48:01.889Z,4.90
2022-11-16T19:50:31.320Z,4.53
2022-11-16T19:53:00.088Z,4.62
2022-11-16T19:55:29.318Z,5.30
2022-11-16T19:57:58.589Z,5.47
2022-11-16T20:00:27.348Z,4.50
2022-11-16T20:02:57.644Z,3.98
2022-11-16T20:05:28.867Z,4.67
2022-11-16T20:07:57.608Z,5.10
2022-11-16T20:10:29.800Z,4.60
2022-11-16T20:12:58.879Z,5.17
2022-11-16T20:15:28.955Z,4.28
2022-11-16T20:17:58.980Z,4.87
2022-11-16T20:20:29.033Z,4.40
2022-11-16T20:22:58.071Z,4.53
2022-11-16T20:25:27.313Z,4.50
2022-11-16T20:27:56.541Z,4.92
2022-11-16T20:30:25.967Z,5.37
2022-11-16T20:32:56.270Z,5.17
2022-11-16T20:35:26.823Z,4.60
2022-11-16T20:37:56.619Z,4.55
2022-11-16T20:40:28.143Z,5.17
2022-11-16T20:42:59.116Z,5.42
2022-11-16T20:45:28.353Z,4.95
2022-11-16T20:47:59.416Z,5.60
2022-11-16T20:50:28.596Z,4.87
2022-11-16T20:52:58.103Z,4.60
2022-11-16T20:55:26.915Z,4.45
2022-11-16T20:57:56.504Z,5.33
2022-11-16T21:00:26.812Z,5.12
2022-11-16T21:02:56.341Z,5.20
2022-11-16T21:05:26.196Z,4.70
2022-11-16T21:07:55.444Z,5.28
2022-11-16T21:10:24.440Z,4.80
2022-11-16T21:13:12.242Z,5.20
2022-11-16T21:15:42.604Z,5.05
2022-11-16T21:18:11.754Z,5.37
2022-11-16T21:20:41.491Z,5.47
2022-11-16T21:23:11.208Z,6.03
2022-11-16T21:25:40.314Z,5.05
2022-11-16T21:28:09.402Z,4.83
2022-11-16T21:30:38.766Z,5.22
2022-11-16T21:33:08.123Z,4.47
2022-11-16T21:35:37.946Z,5.78
2022-11-16T21:38:08.570Z,5.22
2022-11-16T21:40:38.222Z,4.47
2022-11-16T21:43:07.989Z,5.28
2022-11-16T21:45:37.030Z,5.05
2022-11-16T21:48:07.271Z,5.05
2022-11-16T21:50:37.260Z,5.15
2022-11-16T21:53:06.464Z,5.33
2022-11-16T21:55:35.736Z,5.00
2022-11-16T21:58:04.696Z,5.12
2022-11-16T22:00:35.967Z,6.00
2022-11-16T22:03:04.899Z,4.50
2022-11-16T22:05:54.239Z,5.30
2022-11-16T22:08:23.848Z,4.85
2022-11-16T22:10:53.803Z,4.70
2022-11-16T22:13:22.585Z,4.62
2022-11-16T22:15:51.203Z,5.25
2022-11-16T22:18:20.411Z,4.20
2022-11-16T22:20:49.353Z,4.28
2022-11-16T22:23:22.977Z,4.17
2022-11-16T22:25:51.161Z,4.05
2022-11-16T22:28:21.372Z,4.08
2022-11-16T22:30:52.284Z,4.65
2022-11-16T22:33:21.489Z,4.35
2022-11-16T22:35:50.806Z,4.33
2022-11-16T22:38:21.098Z,4.20
2022-11-16T22:40:52.327Z,4.10
2022-11-16T22:43:22.642Z,3.87
2022-11-16T22:45:51.971Z,4.30
2022-11-16T22:48:21.062Z,3.75
2022-11-16T22:50:51.094Z,4.03
2022-11-16T22:53:21.685Z,3.87
2022-11-16T22:55:50.414Z,4.33
